sensor_id;sensor_type;location;lat;lon;timestamp;temperature;humidity
69944;DHT22;57257;48.408;-4.498;2022-12-05T00:01:42;7.65;65.43
69944;DHT22;57257;48.408;-4.498;2022-12-05T00:04:11;7.64;65.52
69944;DHT22;57257;48.408;-4.498;2022-12-05T00:06:38;7.65;65.69
69944;DHT22;57257;48.408;-4.498;2022-12-05T00:09:06;7.68;65.68
69944;DHT22;57257;48.408;-4.498;2022-12-05T00:11:36;7.70;65.59
69944;DHT22;57257;48.408;-4.498;2022-12-05T00:14:03;7.71;65.58
69944;DHT22;57257;48.408;-4.498;2022-12-05T00:16:31;7.70;65.51
69944;DHT22;57257;48.408;-4.498;2022-12-05T00:18:59;7.64;65.54
69944;DHT22;57257;48.408;-4.498;2022-12-05T00:21:26;7.65;65.73
69944;DHT22;57257;48.408;-4.498;2022-12-05T00:23:54;7.74;65.76
69944;DHT22;57257;48.408;-4.498;2022-12-05T00:26:21;7.71;65.64
69944;DHT22;57257;48.408;-4.498;2022-12-05T00:28:47;7.72;65.59
69944;DHT22;57257;48.408;-4.498;2022-12-05T00:31:18;7.72;65.67
69944;DHT22;57257;48.408;-4.498;2022-12-05T00:33:44;7.74;65.68
69944;DHT22;57257;48.408;-4.498;2022-12-05T00:36:18;7.74;65.76
69944;DHT22;57257;48.408;-4.498;2022-12-05T00:38:43;7.78;65.53
69944;DHT22;57257;48.408;-4.498;2022-12-05T00:41:14;7.77;65.64
69944;DHT22;57257;48.408;-4.498;2022-12-05T00:43:41;7.81;65.69
69944;DHT22;57257;48.408;-4.498;2022-12-05T00:46:10;7.82;65.48
69944;DHT22;57257;48.408;-4.498;2022-12-05T00:48:36;7.81;65.41
69944;DHT22;57257;48.408;-4.498;2022-12-05T00:51:04;7.78;65.48
69944;DHT22;57257;48.408;-4.498;2022-12-05T00:53:30;7.81;65.38
69944;DHT22;57257;48.408;-4.498;2022-12-05T00:55:56;7.82;65.38
69944;DHT22;57257;48.408;-4.498;2022-12-05T00:58:21;7.82;65.34
69944;DHT22;57257;48.408;-4.498;2022-12-05T01:00:46;7.79;65.33
69944;DHT22;57257;48.408;-4.498;2022-12-05T01:03:12;7.79;65.33
69944;DHT22;57257;48.408;-4.498;2022-12-05T01:05:37;7.81;65.36
69944;DHT22;57257;48.408;-4.498;2022-12-05T01:08:03;7.86;65.42
69944;DHT22;57257;48.408;-4.498;2022-12-05T01:10:28;7.86;65.34
69944;DHT22;57257;48.408;-4.498;2022-12-05T01:12:54;7.91;65.31
69944;DHT22;57257;48.408;-4.498;2022-12-05T01:15:19;7.91;65.31
69944;DHT22;57257;48.408;-4.498;2022-12-05T01:17:44;7.92;65.39
69944;DHT22;57257;48.408;-4.498;2022-12-05T01:20:10;7.94;65.39
69944;DHT22;57257;48.408;-4.498;2022-12-05T01:22:36;7.98;65.33
69944;DHT22;57257;48.408;-4.498;2022-12-05T01:25:01;8.01;65.31
69944;DHT22;57257;48.408;-4.498;2022-12-05T01:27:27;8.01;65.35
69944;DHT22;57257;48.408;-4.498;2022-12-05T01:29:53;8.01;65.31
69944;DHT22;57257;48.408;-4.498;2022-12-05T01:32:18;8.01;65.24
69944;DHT22;57257;48.408;-4.498;2022-12-05T01:34:44;8.01;65.24
69944;DHT22;57257;48.408;-4.498;2022-12-05T01:37:09;7.99;65.33
69944;DHT22;57257;48.408;-4.498;2022-12-05T01:39:35;7.96;65.35
69944;DHT22;57257;48.408;-4.498;2022-12-05T01:42:00;7.98;65.35
69944;DHT22;57257;48.408;-4.498;2022-12-05T01:46:52;8.02;65.44
69944;DHT22;57257;48.408;-4.498;2022-12-05T01:49:27;7.99;65.49
69944;DHT22;57257;48.408;-4.498;2022-12-05T01:51:58;8.03;65.55
69944;DHT22;57257;48.408;-4.498;2022-12-05T01:54:25;8.02;65.61
69944;DHT22;57257;48.408;-4.498;2022-12-05T01:57:05;7.99;65.57
69944;DHT22;57257;48.408;-4.498;2022-12-05T01:59:35;7.99;65.62
69944;DHT22;57257;48.408;-4.498;2022-12-05T02:02:03;8.01;65.66
69944;DHT22;57257;48.408;-4.498;2022-12-05T02:04:29;8.02;65.50
69944;DHT22;57257;48.408;-4.498;2022-12-05T02:06:55;7.96;65.47
69944;DHT22;57257;48.408;-4.498;2022-12-05T02:09:21;7.95;65.63
69944;DHT22;57257;48.408;-4.498;2022-12-05T02:11:59;7.89;65.66
69944;DHT22;57257;48.408;-4.498;2022-12-05T02:25:45;7.81;65.86
69944;DHT22;57257;48.408;-4.498;2022-12-05T02:31:25;7.77;66.11
69944;DHT22;57257;48.408;-4.498;2022-12-05T02:34:00;7.77;66.09
69944;DHT22;57257;48.408;-4.498;2022-12-05T02:42:22;7.78;66.23
69944;DHT22;57257;48.408;-4.498;2022-12-05T02:45:13;7.78;66.18
69944;DHT22;57257;48.408;-4.498;2022-12-05T02:47:48;7.79;66.22
69944;DHT22;57257;48.408;-4.498;2022-12-05T02:50:17;7.78;66.23
69944;DHT22;57257;48.408;-4.498;2022-12-05T02:52:46;7.82;66.27
69944;DHT22;57257;48.408;-4.498;2022-12-05T02:55:14;7.79;66.30
69944;DHT22;57257;48.408;-4.498;2022-12-05T02:57:44;7.81;66.32
69944;DHT22;57257;48.408;-4.498;2022-12-05T03:00:13;7.82;66.26
69944;DHT22;57257;48.408;-4.498;2022-12-05T03:02:38;7.86;66.21
69944;DHT22;57257;48.408;-4.498;2022-12-05T03:05:16;7.89;66.21
69944;DHT22;57257;48.408;-4.498;2022-12-05T03:07:45;7.85;66.14
69944;DHT22;57257;48.408;-4.498;2022-12-05T03:10:14;7.86;66.20
69944;DHT22;57257;48.408;-4.498;2022-12-05T03:12:49;7.85;66.19
69944;DHT22;57257;48.408;-4.498;2022-12-05T03:15:17;7.84;66.20
69944;DHT22;57257;48.408;-4.498;2022-12-05T03:17:47;7.84;66.20
69944;DHT22;57257;48.408;-4.498;2022-12-05T03:20:15;7.84;66.20
69944;DHT22;57257;48.408;-4.498;2022-12-05T03:25:58;7.77;66.31
69944;DHT22;57257;48.408;-4.498;2022-12-05T03:28:34;7.67;66.43
69944;DHT22;57257;48.408;-4.498;2022-12-05T03:31:08;7.65;66.47
69944;DHT22;57257;48.408;-4.498;2022-12-05T03:33:40;7.64;66.55
69944;DHT22;57257;48.408;-4.498;2022-12-05T03:36:14;7.61;66.52
69944;DHT22;57257;48.408;-4.498;2022-12-05T03:38:50;7.60;66.63
69944;DHT22;57257;48.408;-4.498;2022-12-05T03:41:25;7.58;66.80
69944;DHT22;57257;48.408;-4.498;2022-12-05T03:46:37;7.54;66.83
69944;DHT22;57257;48.408;-4.498;2022-12-05T03:49:50;7.47;67.03
69944;DHT22;57257;48.408;-4.498;2022-12-05T03:54:37;7.46;67.15
69944;DHT22;57257;48.408;-4.498;2022-12-05T03:59:40;7.41;67.32
69944;DHT22;57257;48.408;-4.498;2022-12-05T04:02:13;7.41;67.40
69944;DHT22;57257;48.408;-4.498;2022-12-05T04:04:55;7.41;67.48
69944;DHT22;57257;48.408;-4.498;2022-12-05T04:07:23;7.34;67.62
69944;DHT22;57257;48.408;-4.498;2022-12-05T04:09:55;7.30;67.74
69944;DHT22;57257;48.408;-4.498;2022-12-05T04:12:27;7.30;67.91
69944;DHT22;57257;48.408;-4.498;2022-12-05T04:14:59;7.28;67.83
69944;DHT22;57257;48.408;-4.498;2022-12-05T04:17:45;7.27;67.82
69944;DHT22;57257;48.408;-4.498;2022-12-05T04:20:16;7.24;67.96
69944;DHT22;57257;48.408;-4.498;2022-12-05T04:23:01;7.24;68.03
69944;DHT22;57257;48.408;-4.498;2022-12-05T04:25:36;7.23;68.04
69944;DHT22;57257;48.408;-4.498;2022-12-05T04:31:02;7.17;68.15
69944;DHT22;57257;48.408;-4.498;2022-12-05T04:33:37;7.19;68.20
69944;DHT22;57257;48.408;-4.498;2022-12-05T04:36:28;7.16;68.26
69944;DHT22;57257;48.408;-4.498;2022-12-05T04:39:06;7.19;68.28
69944;DHT22;57257;48.408;-4.498;2022-12-05T04:41:47;7.20;68.24
69944;DHT22;57257;48.408;-4.498;2022-12-05T04:44:17;7.23;68.14
69944;DHT22;57257;48.408;-4.498;2022-12-05T04:46:46;7.23;68.19
69944;DHT22;57257;48.408;-4.498;2022-12-05T04:49:18;7.23;68.14
69944;DHT22;57257;48.408;-4.498;2022-12-05T04:51:46;7.23;68.13
69944;DHT22;57257;48.408;-4.498;2022-12-05T04:54:21;7.21;68.11
69944;DHT22;57257;48.408;-4.498;2022-12-05T04:56:51;7.20;68.09
69944;DHT22;57257;48.408;-4.498;2022-12-05T04:59:20;7.20;68.13
69944;DHT22;57257;48.408;-4.498;2022-12-05T05:01:52;7.23;68.11
69944;DHT22;57257;48.408;-4.498;2022-12-05T05:04:29;7.24;68.08
69944;DHT22;57257;48.408;-4.498;2022-12-05T05:06:55;7.27;68.06
69944;DHT22;57257;48.408;-4.498;2022-12-05T05:09:21;7.27;68.04
69944;DHT22;57257;48.408;-4.498;2022-12-05T05:11:46;7.28;68.03
69944;DHT22;57257;48.408;-4.498;2022-12-05T05:14:12;7.31;68.00
69944;DHT22;57257;48.408;-4.498;2022-12-05T05:16:39;7.28;67.87
69944;DHT22;57257;48.408;-4.498;2022-12-05T05:19:06;7.30;67.94
69944;DHT22;57257;48.408;-4.498;2022-12-05T05:21:38;7.31;67.95
69944;DHT22;57257;48.408;-4.498;2022-12-05T05:24:04;7.33;67.89
69944;DHT22;57257;48.408;-4.498;2022-12-05T05:26:33;7.34;67.83
69944;DHT22;57257;48.408;-4.498;2022-12-05T05:28:58;7.34;67.82
69944;DHT22;57257;48.408;-4.498;2022-12-05T05:31:24;7.33;67.81
69944;DHT22;57257;48.408;-4.498;2022-12-05T05:33:52;7.35;67.78
69944;DHT22;57257;48.408;-4.498;2022-12-05T05:36:19;7.34;67.74
69944;DHT22;57257;48.408;-4.498;2022-12-05T05:38:50;7.33;67.72
69944;DHT22;57257;48.408;-4.498;2022-12-05T05:41:23;7.34;67.70
69944;DHT22;57257;48.408;-4.498;2022-12-05T05:43:49;7.35;67.66
69944;DHT22;57257;48.408;-4.498;2022-12-05T05:46:18;7.30;67.67
69944;DHT22;57257;48.408;-4.498;2022-12-05T05:48:43;7.31;67.69
69944;DHT22;57257;48.408;-4.498;2022-12-05T05:51:12;7.33;67.64
69944;DHT22;57257;48.408;-4.498;2022-12-05T05:53:38;7.30;67.60
69944;DHT22;57257;48.408;-4.498;2022-12-05T05:56:06;7.28;67.64
69944;DHT22;57257;48.408;-4.498;2022-12-05T05:58:32;7.27;67.64
69944;DHT22;57257;48.408;-4.498;2022-12-05T06:01:13;7.27;67.71
69944;DHT22;57257;48.408;-4.498;2022-12-05T06:03:39;7.23;67.58
69944;DHT22;57257;48.408;-4.498;2022-12-05T06:06:07;7.19;67.60
69944;DHT22;57257;48.408;-4.498;2022-12-05T06:08:34;7.14;67.69
69944;DHT22;57257;48.408;-4.498;2022-12-05T06:11:07;7.11;67.69
69944;DHT22;57257;48.408;-4.498;2022-12-05T06:13:33;7.09;67.76
69944;DHT22;57257;48.408;-4.498;2022-12-05T06:15:58;7.06;67.82
69944;DHT22;57257;48.408;-4.498;2022-12-05T06:18:23;7.04;67.82
69944;DHT22;57257;48.408;-4.498;2022-12-05T06:20:56;7.00;67.90
69944;DHT22;57257;48.408;-4.498;2022-12-05T06:23:23;7.01;67.93
69944;DHT22;57257;48.408;-4.498;2022-12-05T06:25:51;7.04;67.94
69944;DHT22;57257;48.408;-4.498;2022-12-05T06:28:17;7.06;67.89
69944;DHT22;57257;48.408;-4.498;2022-12-05T06:30:43;7.04;67.77
69944;DHT22;57257;48.408;-4.498;2022-12-05T06:33:09;7.03;67.77
69944;DHT22;57257;48.408;-4.498;2022-12-05T06:35:35;7.04;67.76
69944;DHT22;57257;48.408;-4.498;2022-12-05T06:38:00;7.04;67.74
69944;DHT22;57257;48.408;-4.498;2022-12-05T06:40:26;7.06;67.72
69944;DHT22;57257;48.408;-4.498;2022-12-05T06:42:51;7.03;67.71
69944;DHT22;57257;48.408;-4.498;2022-12-05T06:45:17;7.06;67.71
69944;DHT22;57257;48.408;-4.498;2022-12-05T06:47:42;7.03;67.55
69944;DHT22;57257;48.408;-4.498;2022-12-05T06:50:08;7.00;67.59
69944;DHT22;57257;48.408;-4.498;2022-12-05T06:52:33;6.99;67.61
69944;DHT22;57257;48.408;-4.498;2022-12-05T06:54:59;6.99;67.62
69944;DHT22;57257;48.408;-4.498;2022-12-05T06:57:26;6.96;67.59
69944;DHT22;57257;48.408;-4.498;2022-12-05T06:59:51;6.95;67.67
69944;DHT22;57257;48.408;-4.498;2022-12-05T07:02:37;6.95;67.69
69944;DHT22;57257;48.408;-4.498;2022-12-05T07:05:02;6.95;67.66
69944;DHT22;57257;48.408;-4.498;2022-12-05T07:07:28;6.96;67.54
69944;DHT22;57257;48.408;-4.498;2022-12-05T07:09:54;6.95;67.46
69944;DHT22;57257;48.408;-4.498;2022-12-05T07:12:19;6.90;67.50
69944;DHT22;57257;48.408;-4.498;2022-12-05T07:14:45;6.89;67.57
69944;DHT22;57257;48.408;-4.498;2022-12-05T07:17:10;6.89;67.57
69944;DHT22;57257;48.408;-4.498;2022-12-05T07:19:36;6.89;67.58
69944;DHT22;57257;48.408;-4.498;2022-12-05T07:22:02;6.92;67.59
69944;DHT22;57257;48.408;-4.498;2022-12-05T07:24:27;6.87;67.60
69944;DHT22;57257;48.408;-4.498;2022-12-05T07:26:52;6.92;67.60
69944;DHT22;57257;48.408;-4.498;2022-12-05T07:29:18;6.89;67.52
69944;DHT22;57257;48.408;-4.498;2022-12-05T07:31:43;6.89;67.47
69944;DHT22;57257;48.408;-4.498;2022-12-05T07:34:09;6.89;67.55
69944;DHT22;57257;48.408;-4.498;2022-12-05T07:36:34;6.87;67.52
69944;DHT22;57257;48.408;-4.498;2022-12-05T07:39:00;6.93;67.50
69944;DHT22;57257;48.408;-4.498;2022-12-05T07:41:27;6.90;67.48
69944;DHT22;57257;48.408;-4.498;2022-12-05T07:43:55;6.89;67.50
69944;DHT22;57257;48.408;-4.498;2022-12-05T07:46:22;6.89;67.48
69944;DHT22;57257;48.408;-4.498;2022-12-05T07:48:48;6.89;67.51
69944;DHT22;57257;48.408;-4.498;2022-12-05T07:51:14;6.86;67.52
69944;DHT22;57257;48.408;-4.498;2022-12-05T07:53:40;6.85;67.54
69944;DHT22;57257;48.408;-4.498;2022-12-05T07:56:09;6.86;67.51
69944;DHT22;57257;48.408;-4.498;2022-12-05T07:58:35;6.85;67.58
69944;DHT22;57257;48.408;-4.498;2022-12-05T08:01:12;6.82;67.63
69944;DHT22;57257;48.408;-4.498;2022-12-05T08:03:38;6.89;67.61
69944;DHT22;57257;48.408;-4.498;2022-12-05T08:06:06;6.86;67.51
69944;DHT22;57257;48.408;-4.498;2022-12-05T08:08:32;6.87;67.48
69944;DHT22;57257;48.408;-4.498;2022-12-05T08:11:10;6.92;67.48
69944;DHT22;57257;48.408;-4.498;2022-12-05T08:13:36;6.90;67.43
69944;DHT22;57257;48.408;-4.498;2022-12-05T08:16:03;6.92;67.43
69944;DHT22;57257;48.408;-4.498;2022-12-05T08:18:29;6.93;67.34
69944;DHT22;57257;48.408;-4.498;2022-12-05T08:20:59;6.99;67.17
69944;DHT22;57257;48.408;-4.498;2022-12-05T08:23:27;6.99;67.43
69944;DHT22;57257;48.408;-4.498;2022-12-05T08:25:53;7.06;67.31
69944;DHT22;57257;48.408;-4.498;2022-12-05T08:28:18;7.09;67.25
69944;DHT22;57257;48.408;-4.498;2022-12-05T08:30:44;7.13;67.19
69944;DHT22;57257;48.408;-4.498;2022-12-05T08:33:09;7.19;67.02
69944;DHT22;57257;48.408;-4.498;2022-12-05T08:35:36;7.23;66.96
69944;DHT22;57257;48.408;-4.498;2022-12-05T08:38:01;7.24;66.96
69944;DHT22;57257;48.408;-4.498;2022-12-05T08:40:27;7.27;66.86
69944;DHT22;57257;48.408;-4.498;2022-12-05T08:42:52;7.28;66.85
69944;DHT22;57257;48.408;-4.498;2022-12-05T08:45:18;7.31;66.83
69944;DHT22;57257;48.408;-4.498;2022-12-05T08:47:43;7.34;66.72
69944;DHT22;57257;48.408;-4.498;2022-12-05T08:50:09;7.37;66.73
69944;DHT22;57257;48.408;-4.498;2022-12-05T08:52:34;7.43;66.69
69944;DHT22;57257;48.408;-4.498;2022-12-05T08:54:59;7.43;66.52
69944;DHT22;57257;48.408;-4.498;2022-12-05T08:57:25;7.41;66.56
69944;DHT22;57257;48.408;-4.498;2022-12-05T08:59:50;7.43;66.56
69944;DHT22;57257;48.408;-4.498;2022-12-05T09:02:16;7.47;66.50
69944;DHT22;57257;48.408;-4.498;2022-12-05T09:04:41;7.50;66.38
69944;DHT22;57257;48.408;-4.498;2022-12-05T09:07:07;7.54;66.37
69944;DHT22;57257;48.408;-4.498;2022-12-05T09:09:32;7.54;66.30
69944;DHT22;57257;48.408;-4.498;2022-12-05T09:11:59;7.58;66.28
69944;DHT22;57257;48.408;-4.498;2022-12-05T09:14:25;7.64;66.20
69944;DHT22;57257;48.408;-4.498;2022-12-05T09:16:57;7.70;66.06
69944;DHT22;57257;48.408;-4.498;2022-12-05T09:19:23;7.72;65.92
69944;DHT22;57257;48.408;-4.498;2022-12-05T09:21:50;7.77;65.96
69944;DHT22;57257;48.408;-4.498;2022-12-05T09:24:16;7.81;65.89
69944;DHT22;57257;48.408;-4.498;2022-12-05T09:26:41;7.88;65.87
69944;DHT22;57257;48.408;-4.498;2022-12-05T09:29:07;7.94;65.85
69944;DHT22;57257;48.408;-4.498;2022-12-05T09:31:33;7.99;65.79
69944;DHT22;57257;48.408;-4.498;2022-12-05T09:33:59;8.03;65.63
69944;DHT22;57257;48.408;-4.498;2022-12-05T09:36:27;8.12;65.66
69944;DHT22;57257;48.408;-4.498;2022-12-05T09:38:54;8.18;65.48
69944;DHT22;57257;48.408;-4.498;2022-12-05T09:41:46;8.28;65.41
69944;DHT22;57257;48.408;-4.498;2022-12-05T09:47:57;8.54;64.83
69944;DHT22;57257;48.408;-4.498;2022-12-05T09:50:34;8.69;64.84
69944;DHT22;57257;48.408;-4.498;2022-12-05T09:55:52;8.97;64.39
69944;DHT22;57257;48.408;-4.498;2022-12-05T10:00:50;8.97;63.63
69944;DHT22;57257;48.408;-4.498;2022-12-05T10:03:41;9.08;63.82
69944;DHT22;57257;48.408;-4.498;2022-12-05T10:06:28;9.27;63.64
69944;DHT22;57257;48.408;-4.498;2022-12-05T10:09:38;9.39;63.39
69944;DHT22;57257;48.408;-4.498;2022-12-05T10:12:28;9.56;63.39
69944;DHT22;57257;48.408;-4.498;2022-12-05T10:15:48;9.69;62.71
69944;DHT22;57257;48.408;-4.498;2022-12-05T10:17:56;9.83;62.94
69944;DHT22;57257;48.408;-4.498;2022-12-05T10:20:27;9.93;62.64
69944;DHT22;57257;48.408;-4.498;2022-12-05T10:22:55;10.06;62.42
69944;DHT22;57257;48.408;-4.498;2022-12-05T10:25:24;10.17;62.23
69944;DHT22;57257;48.408;-4.498;2022-12-05T10:27:53;10.33;62.03
69944;DHT22;57257;48.408;-4.498;2022-12-05T10:30:22;10.43;61.56
69944;DHT22;57257;48.408;-4.498;2022-12-05T10:37:46;10.49;60.77
69944;DHT22;57257;48.408;-4.498;2022-12-05T10:40:13;10.54;61.03
69944;DHT22;57257;48.408;-4.498;2022-12-05T10:42:38;10.61;60.67
69944;DHT22;57257;48.408;-4.498;2022-12-05T10:45:07;10.63;60.56
69944;DHT22;57257;48.408;-4.498;2022-12-05T10:47:33;10.67;60.67
69944;DHT22;57257;48.408;-4.498;2022-12-05T10:50:05;10.78;60.32
69944;DHT22;57257;48.408;-4.498;2022-12-05T10:52:31;10.85;59.89
69944;DHT22;57257;48.408;-4.498;2022-12-05T10:55:02;10.85;59.72
69944;DHT22;57257;48.408;-4.498;2022-12-05T10:57:28;10.88;59.49
69944;DHT22;57257;48.408;-4.498;2022-12-05T10:59:54;10.90;59.67
69944;DHT22;57257;48.408;-4.498;2022-12-05T11:02:24;10.97;59.54
69944;DHT22;57257;48.408;-4.498;2022-12-05T11:04:51;10.98;59.42
69944;DHT22;57257;48.408;-4.498;2022-12-05T11:09:48;10.95;59.01
69944;DHT22;57257;48.408;-4.498;2022-12-05T11:12:19;10.97;58.85
69944;DHT22;57257;48.408;-4.498;2022-12-05T11:19:56;10.94;58.18
69944;DHT22;57257;48.408;-4.498;2022-12-05T11:22:31;10.87;58.34
69944;DHT22;57257;48.408;-4.498;2022-12-05T11:24:56;10.85;58.27
69944;DHT22;57257;48.408;-4.498;2022-12-05T11:27:28;10.87;58.34
69944;DHT22;57257;48.408;-4.498;2022-12-05T11:30:02;10.91;58.55
69944;DHT22;57257;48.408;-4.498;2022-12-05T11:32:32;10.97;58.45
69944;DHT22;57257;48.408;-4.498;2022-12-05T11:37:59;10.91;57.68
69944;DHT22;57257;48.408;-4.498;2022-12-05T11:40:49;10.90;58.01
69944;DHT22;57257;48.408;-4.498;2022-12-05T11:43:47;10.98;58.39
69944;DHT22;57257;48.408;-4.498;2022-12-05T11:49:46;11.19;58.23
69944;DHT22;57257;48.408;-4.498;2022-12-05T12:22:26;11.21;57.70
69944;DHT22;57257;48.408;-4.498;2022-12-05T12:27:54;11.25;57.83
69944;DHT22;57257;48.408;-4.498;2022-12-05T12:35:50;11.10;58.37
69944;DHT22;57257;48.408;-4.498;2022-12-05T12:40:59;11.08;58.59
69944;DHT22;57257;48.408;-4.498;2022-12-05T12:47:20;10.87;59.04
69944;DHT22;57257;48.408;-4.498;2022-12-05T12:52:14;10.78;59.85
69944;DHT22;57257;48.408;-4.498;2022-12-05T12:57:31;11.10;59.81
69944;DHT22;57257;48.408;-4.498;2022-12-05T13:02:43;11.54;59.02
69944;DHT22;57257;48.408;-4.498;2022-12-05T13:05:29;11.76;58.76
69944;DHT22;57257;48.408;-4.498;2022-12-05T13:10:45;12.07;57.94
69944;DHT22;57257;48.408;-4.498;2022-12-05T13:13:19;12.24;57.65
69944;DHT22;57257;48.408;-4.498;2022-12-05T13:15:51;12.43;57.31
69944;DHT22;57257;48.408;-4.498;2022-12-05T13:18:23;12.78;57.02
69944;DHT22;57257;48.408;-4.498;2022-12-05T13:20:52;13.19;56.21
69944;DHT22;57257;48.408;-4.498;2022-12-05T13:23:24;13.46;54.98
69944;DHT22;57257;48.408;-4.498;2022-12-05T13:25:53;13.63;55.20
69944;DHT22;57257;48.408;-4.498;2022-12-05T13:28:27;13.96;54.04
69944;DHT22;57257;48.408;-4.498;2022-12-05T13:30:54;14.63;53.25
69944;DHT22;57257;48.408;-4.498;2022-12-05T13:33:40;15.22;51.93
69944;DHT22;57257;48.408;-4.498;2022-12-05T13:36:09;15.83;51.17
69944;DHT22;57257;48.408;-4.498;2022-12-05T13:39:20;16.32;49.68
69944;DHT22;57257;48.408;-4.498;2022-12-05T13:42:03;16.96;48.41
69944;DHT22;57257;48.408;-4.498;2022-12-05T13:44:43;17.19;47.94
69944;DHT22;57257;48.408;-4.498;2022-12-05T13:50:09;17.76;47.01
69944;DHT22;57257;48.408;-4.498;2022-12-05T13:52:49;17.90;47.54
69944;DHT22;57257;48.408;-4.498;2022-12-05T13:55:30;18.09;46.75
69944;DHT22;57257;48.408;-4.498;2022-12-05T13:58:01;18.01;45.81
69944;DHT22;57257;48.408;-4.498;2022-12-05T14:03:05;17.54;45.91
69944;DHT22;57257;48.408;-4.498;2022-12-05T14:05:43;17.39;46.13
69944;DHT22;57257;48.408;-4.498;2022-12-05T14:15:53;16.71;45.86
69944;DHT22;57257;48.408;-4.498;2022-12-05T14:18:32;16.58;45.68
69944;DHT22;57257;48.408;-4.498;2022-12-05T14:22:07;16.22;46.61
69944;DHT22;57257;48.408;-4.498;2022-12-05T14:24:20;15.59;47.19
69944;DHT22;57257;48.408;-4.498;2022-12-05T14:40:33;13.45;50.72
69944;DHT22;57257;48.408;-4.498;2022-12-05T14:43:01;13.16;50.88
69944;DHT22;57257;48.408;-4.498;2022-12-05T14:45:36;12.94;51.51
69944;DHT22;57257;48.408;-4.498;2022-12-05T14:48:21;12.84;51.84
69944;DHT22;57257;48.408;-4.498;2022-12-05T14:50:50;12.58;52.05
69944;DHT22;57257;48.408;-4.498;2022-12-05T14:53:32;12.43;52.33
69944;DHT22;57257;48.408;-4.498;2022-12-05T14:58:58;12.13;53.15
69944;DHT22;57257;48.408;-4.498;2022-12-05T15:06:47;11.73;53.68
69944;DHT22;57257;48.408;-4.498;2022-12-05T15:12:47;11.42;54.19
69944;DHT22;57257;48.408;-4.498;2022-12-05T15:18:08;11.18;54.71
69944;DHT22;57257;48.408;-4.498;2022-12-05T15:23:45;10.93;55.45
69944;DHT22;57257;48.408;-4.498;2022-12-05T15:29:14;10.75;56.03
69944;DHT22;57257;48.408;-4.498;2022-12-05T15:31:47;10.73;56.19
69944;DHT22;57257;48.408;-4.498;2022-12-05T15:37:13;10.61;56.37
69944;DHT22;57257;48.408;-4.498;2022-12-05T15:40:00;10.51;56.57
69944;DHT22;57257;48.408;-4.498;2022-12-05T15:42:35;10.39;56.77
69944;DHT22;57257;48.408;-4.498;2022-12-05T15:47:46;10.23;57.19
69944;DHT22;57257;48.408;-4.498;2022-12-05T15:50:13;10.17;57.30
69944;DHT22;57257;48.408;-4.498;2022-12-05T15:53:19;10.19;57.35
69944;DHT22;57257;48.408;-4.498;2022-12-05T16:01:03;9.90;57.71
69944;DHT22;57257;48.408;-4.498;2022-12-05T16:03:40;9.81;57.92
69944;DHT22;57257;48.408;-4.498;2022-12-05T16:08:46;9.78;58.18
69944;DHT22;57257;48.408;-4.498;2022-12-05T16:11:13;9.75;58.33
69944;DHT22;57257;48.408;-4.498;2022-12-05T16:13:44;9.69;58.46
69944;DHT22;57257;48.408;-4.498;2022-12-05T16:16:18;9.65;58.77
69944;DHT22;57257;48.408;-4.498;2022-12-05T16:18:52;9.61;58.76
69944;DHT22;57257;48.408;-4.498;2022-12-05T16:21:30;9.56;59.01
69944;DHT22;57257;48.408;-4.498;2022-12-05T16:24:01;9.49;58.91
69944;DHT22;57257;48.408;-4.498;2022-12-05T16:26:27;9.44;59.30
69944;DHT22;57257;48.408;-4.498;2022-12-05T16:28:59;9.35;59.18
69944;DHT22;57257;48.408;-4.498;2022-12-05T16:31:30;9.27;59.36
69944;DHT22;57257;48.408;-4.498;2022-12-05T16:34:07;9.20;59.60
69944;DHT22;57257;48.408;-4.498;2022-12-05T16:36:45;9.18;59.60
69944;DHT22;57257;48.408;-4.498;2022-12-05T16:39:13;9.14;59.77
69944;DHT22;57257;48.408;-4.498;2022-12-05T16:41:39;9.13;59.75
69944;DHT22;57257;48.408;-4.498;2022-12-05T16:47:22;8.96;60.20
69944;DHT22;57257;48.408;-4.498;2022-12-05T16:49:48;8.94;60.46
69944;DHT22;57257;48.408;-4.498;2022-12-05T16:52:14;8.90;60.49
69944;DHT22;57257;48.408;-4.498;2022-12-05T16:54:41;8.87;60.55
69944;DHT22;57257;48.408;-4.498;2022-12-05T16:57:12;8.88;60.63
69944;DHT22;57257;48.408;-4.498;2022-12-05T16:59:39;8.83;60.55
69944;DHT22;57257;48.408;-4.498;2022-12-05T17:02:15;8.80;60.63
69944;DHT22;57257;48.408;-4.498;2022-12-05T17:04:41;8.76;60.69
69944;DHT22;57257;48.408;-4.498;2022-12-05T17:07:07;8.71;60.78
69944;DHT22;57257;48.408;-4.498;2022-12-05T17:09:32;8.69;60.96
69944;DHT22;57257;48.408;-4.498;2022-12-05T17:12:11;8.64;60.95
69944;DHT22;57257;48.408;-4.498;2022-12-05T17:14:37;8.59;60.99
69944;DHT22;57257;48.408;-4.498;2022-12-05T17:17:08;8.54;61.05
69944;DHT22;57257;48.408;-4.498;2022-12-05T17:19:36;8.46;61.29
69944;DHT22;57257;48.408;-4.498;2022-12-05T17:22:03;8.43;61.36
69944;DHT22;57257;48.408;-4.498;2022-12-05T17:24:29;8.39;61.41
69944;DHT22;57257;48.408;-4.498;2022-12-05T17:26:54;8.40;61.43
69944;DHT22;57257;48.408;-4.498;2022-12-05T17:29:20;8.38;61.51
69944;DHT22;57257;48.408;-4.498;2022-12-05T17:31:45;8.35;61.43
69944;DHT22;57257;48.408;-4.498;2022-12-05T17:34:15;8.30;61.52
69944;DHT22;57257;48.408;-4.498;2022-12-05T17:36:42;8.30;61.55
69944;DHT22;57257;48.408;-4.498;2022-12-05T17:39:08;8.26;61.65
69944;DHT22;57257;48.408;-4.498;2022-12-05T17:41:33;8.21;61.79
69944;DHT22;57257;48.408;-4.498;2022-12-05T17:43:59;8.19;61.80
69944;DHT22;57257;48.408;-4.498;2022-12-05T17:46:24;8.16;61.84
69944;DHT22;57257;48.408;-4.498;2022-12-05T17:48:50;8.15;61.96
69944;DHT22;57257;48.408;-4.498;2022-12-05T17:51:17;8.18;61.97
69944;DHT22;57257;48.408;-4.498;2022-12-05T17:53:43;8.12;61.95
69944;DHT22;57257;48.408;-4.498;2022-12-05T17:56:09;8.12;62.00
69944;DHT22;57257;48.408;-4.498;2022-12-05T17:58:35;8.13;62.06
69944;DHT22;57257;48.408;-4.498;2022-12-05T18:01:01;8.05;62.16
69944;DHT22;57257;48.408;-4.498;2022-12-05T18:03:27;8.01;62.21
69944;DHT22;57257;48.408;-4.498;2022-12-05T18:05:52;8.05;62.20
69944;DHT22;57257;48.408;-4.498;2022-12-05T18:08:18;8.02;62.25
69944;DHT22;57257;48.408;-4.498;2022-12-05T18:10:45;8.01;62.36
69944;DHT22;57257;48.408;-4.498;2022-12-05T18:13:12;7.95;62.46
69944;DHT22;57257;48.408;-4.498;2022-12-05T18:15:38;7.96;62.59
69944;DHT22;57257;48.408;-4.498;2022-12-05T18:18:04;7.91;62.54
69944;DHT22;57257;48.408;-4.498;2022-12-05T18:20:31;7.92;62.56
69944;DHT22;57257;48.408;-4.498;2022-12-05T18:22:57;7.94;62.57
69944;DHT22;57257;48.408;-4.498;2022-12-05T18:25:23;7.88;62.71
69944;DHT22;57257;48.408;-4.498;2022-12-05T18:27:49;7.89;62.68
69944;DHT22;57257;48.408;-4.498;2022-12-05T18:30:14;7.89;62.71
69944;DHT22;57257;48.408;-4.498;2022-12-05T18:32:39;7.86;62.73
69944;DHT22;57257;48.408;-4.498;2022-12-05T18:35:05;7.88;62.79
69944;DHT22;57257;48.408;-4.498;2022-12-05T18:37:36;7.85;62.85
69944;DHT22;57257;48.408;-4.498;2022-12-05T18:40:07;7.84;62.80
69944;DHT22;57257;48.408;-4.498;2022-12-05T18:42:32;7.86;62.80
69944;DHT22;57257;48.408;-4.498;2022-12-05T18:44:59;7.81;62.99
69944;DHT22;57257;48.408;-4.498;2022-12-05T18:47:25;7.79;63.07
69944;DHT22;57257;48.408;-4.498;2022-12-05T18:49:50;7.77;63.04